Google Maps JavaScript API Example
Pilot Flight Report # 96480 Submitted by : AST195 on 2022-10-05
Date: 2022-10-05Aircraft: Boeing 737-800
Flight No.: AST28770Distance (Nm): 2036.08
Departure: PANC - Stevens Anchorage InternationalDestination: KLAX - Los Angeles International
 TimeFuelWeightSpeeds  
Out (Taxi)1751 Flight RulesIFR
Off (Takeoff)1751 Flight Level
On (Landing)2252 VSTD
In (Ramp)2252 ZFW
Flight5.02  -  5:0122400  Pax0
Block5.02  -  5:0122400  Cargo0
Departure WeatherPANC 052253Z 04003KT 10SM BKN070 BKN120 10/05 A2983 RMK AO2 SLP102 T01000050
Destination WeatherKLAX 052253Z 25011KT 10SM FEW009 FEW100 23/18 A2992 RMK AO2 SLP131 T02280178
Flight CommentsGATE 42A